createdAt,value
2018-10-01T00:01:06.035Z,4.53
2018-10-01T00:03:35.336Z,4.37
2018-10-01T00:06:04.663Z,4.27
2018-10-01T00:08:34.179Z,5.67
2018-10-01T00:11:03.888Z,4.93
2018-10-01T00:13:33.208Z,5.47
2018-10-01T00:16:03.063Z,4.90
2018-10-01T00:18:32.475Z,5.33
2018-10-01T00:21:06.924Z,4.70
2018-10-01T00:23:36.271Z,3.30
2018-10-01T00:26:05.605Z,5.17
2018-10-01T00:28:34.887Z,4.80
2018-10-01T00:31:04.846Z,3.63
2018-10-01T00:33:34.189Z,3.53
2018-10-01T00:36:03.585Z,3.83
2018-10-01T00:38:32.997Z,4.97
2018-10-01T00:41:02.377Z,3.43
2018-10-01T00:43:31.727Z,3.70
2018-10-01T00:46:01.032Z,2.97
2018-10-01T00:48:30.408Z,4.70
2018-10-01T00:50:59.741Z,2.90
2018-10-01T00:53:29.031Z,3.50
2018-10-01T00:55:58.384Z,3.37
2018-10-01T00:58:27.732Z,8.10
2018-10-01T01:00:57.083Z,4.23
2018-10-01T01:03:26.474Z,5.50
2018-10-01T01:05:55.814Z,4.47
2018-10-01T01:08:25.113Z,5.17
2018-10-01T01:10:54.462Z,5.33
2018-10-01T01:13:23.845Z,3.67
2018-10-01T01:15:53.267Z,4.73
2018-10-01T01:18:22.603Z,3.83
2018-10-01T01:20:52.002Z,2.80
2018-10-01T01:23:21.337Z,6.30
2018-10-01T01:25:50.658Z,3.00
2018-10-01T01:28:20.012Z,4.07
2018-10-01T01:30:49.353Z,5.40
2018-10-01T01:33:18.768Z,3.60
2018-10-01T01:35:48.130Z,3.83
2018-10-01T01:38:17.560Z,4.10
2018-10-01T01:40:46.892Z,3.47
2018-10-01T01:43:16.319Z,4.90
2018-10-01T01:45:45.658Z,3.67
2018-10-01T01:48:14.942Z,4.90
2018-10-01T01:50:44.347Z,4.10
2018-10-01T01:53:13.715Z,2.90
2018-10-01T01:55:43.066Z,3.63
2018-10-01T01:58:12.367Z,4.90
2018-10-01T02:00:41.598Z,4.37
2018-10-01T02:03:10.987Z,3.57
2018-10-01T02:05:40.227Z,3.63
2018-10-01T02:08:09.543Z,3.97
2018-10-01T02:10:38.943Z,4.60
2018-10-01T02:13:08.315Z,3.83
2018-10-01T02:15:37.703Z,4.60
2018-10-01T02:18:07.018Z,4.87
2018-10-01T02:20:36.348Z,4.40
2018-10-01T02:23:05.716Z,4.10
2018-10-01T02:25:35.061Z,4.03
2018-10-01T02:28:04.368Z,11.20
2018-10-01T02:30:33.682Z,4.90
2018-10-01T02:33:03.011Z,6.13
2018-10-01T02:35:32.312Z,5.73
2018-10-01T02:38:01.675Z,6.73
2018-10-01T02:40:31.079Z,5.40
2018-10-01T02:43:00.420Z,3.67
2018-10-01T02:45:29.707Z,4.90
2018-10-01T02:47:59.099Z,5.20
2018-10-01T02:50:28.435Z,5.83
2018-10-01T02:53:02.817Z,4.37
2018-10-01T02:55:32.155Z,4.90
2018-10-01T02:58:01.504Z,4.07
2018-10-01T03:00:30.795Z,3.80
2018-10-01T03:03:00.104Z,5.50
2018-10-01T03:05:29.467Z,3.73
2018-10-01T03:07:58.831Z,3.53
2018-10-01T03:10:28.126Z,2.93
2018-10-01T03:12:57.460Z,5.13
2018-10-01T03:15:26.807Z,3.87
2018-10-01T03:17:56.108Z,4.07
2018-10-01T03:20:25.467Z,4.40
2018-10-01T03:22:54.786Z,6.17
2018-10-01T03:25:24.194Z,3.70
2018-10-01T03:27:53.566Z,4.77
2018-10-01T03:30:22.926Z,6.37
2018-10-01T03:32:52.309Z,5.07
2018-10-01T03:35:21.569Z,4.43
2018-10-01T03:37:54.349Z,6.30
2018-10-01T03:40:23.709Z,5.37
2018-10-01T03:42:52.999Z,4.93
2018-10-01T03:45:22.424Z,6.27
2018-10-01T03:47:51.740Z,4.73
2018-10-01T03:50:21.023Z,4.70
2018-10-01T03:52:50.399Z,8.10
2018-10-01T03:55:19.682Z,4.37
2018-10-01T03:57:49.047Z,4.03
2018-10-01T04:00:18.339Z,5.77
2018-10-01T04:02:47.696Z,4.47
2018-10-01T04:05:17.089Z,4.60
2018-10-01T04:07:46.420Z,4.00
2018-10-01T04:10:15.821Z,4.13
2018-10-01T04:12:45.080Z,5.87
2018-10-01T04:15:14.475Z,4.80
2018-10-01T04:17:43.757Z,6.20
2018-10-01T04:20:13.109Z,6.70
2018-10-01T04:22:42.463Z,4.83
2018-10-01T04:25:12.187Z,5.27
2018-10-01T04:27:41.538Z,6.87
2018-10-01T04:30:12.195Z,6.73
2018-10-01T04:32:41.592Z,5.57
2018-10-01T04:35:10.979Z,3.90
2018-10-01T04:37:40.381Z,5.37
2018-10-01T04:40:09.814Z,6.57
2018-10-01T04:42:39.101Z,5.10
2018-10-01T04:45:08.557Z,4.67
2018-10-01T04:47:37.869Z,4.73
2018-10-01T04:50:07.191Z,4.90
2018-10-01T04:52:36.590Z,4.60
2018-10-01T04:55:05.958Z,5.23
2018-10-01T04:57:35.315Z,3.83
2018-10-01T05:00:04.867Z,19.07
2018-10-01T05:02:34.226Z,4.43
2018-10-01T05:05:03.579Z,4.83
2018-10-01T05:07:32.971Z,4.20
2018-10-01T05:10:02.311Z,5.47
2018-10-01T05:12:31.710Z,5.07
2018-10-01T05:15:01.066Z,5.43
2018-10-01T05:17:30.407Z,6.63
2018-10-01T05:19:59.735Z,4.10
2018-10-01T05:22:29.137Z,7.27
2018-10-01T05:24:58.528Z,5.87
2018-10-01T05:27:27.830Z,4.50
2018-10-01T05:29:57.206Z,4.90
2018-10-01T05:32:26.550Z,4.97
2018-10-01T05:34:55.881Z,5.40
2018-10-01T05:37:25.267Z,3.53
2018-10-01T05:39:54.645Z,10.30
2018-10-01T05:42:24.069Z,8.77
2018-10-01T05:44:53.397Z,5.73
2018-10-01T05:47:22.823Z,4.17
2018-10-01T05:49:52.190Z,5.87
2018-10-01T05:52:21.619Z,5.23
2018-10-01T05:54:50.894Z,9.30
2018-10-01T05:57:20.235Z,6.80
2018-10-01T05:59:49.680Z,7.50
2018-10-01T06:02:19.456Z,14.87
2018-10-01T06:04:48.971Z,12.93
2018-10-01T06:07:18.239Z,10.40
2018-10-01T06:09:47.654Z,7.17
2018-10-01T06:12:17.116Z,8.77
2018-10-01T06:14:46.971Z,6.80
2018-10-01T06:17:16.483Z,8.13
2018-10-01T06:19:46.094Z,7.47
2018-10-01T06:22:15.478Z,9.93
2018-10-01T06:24:44.852Z,8.30
2018-10-01T06:27:14.263Z,9.77
2018-10-01T06:29:43.650Z,10.90
2018-10-01T06:32:12.953Z,7.83
2018-10-01T06:34:42.357Z,6.00
2018-10-01T06:37:11.793Z,7.07
2018-10-01T06:39:41.102Z,6.70
2018-10-01T06:42:10.530Z,8.47
2018-10-01T06:44:39.839Z,6.80
2018-10-01T06:47:09.231Z,6.63
2018-10-01T06:49:38.588Z,7.43
2018-10-01T06:52:08.142Z,6.33
2018-10-01T06:54:37.633Z,6.27
2018-10-01T06:57:07.099Z,7.63
2018-10-01T06:59:36.414Z,6.53
2018-10-01T07:02:05.839Z,8.17
2018-10-01T07:04:35.175Z,7.70
2018-10-01T07:07:04.664Z,6.50
2018-10-01T07:09:34.182Z,7.73
2018-10-01T07:12:03.565Z,7.07
2018-10-01T07:14:33.065Z,7.23
2018-10-01T07:17:03.547Z,8.67
2018-10-01T07:19:33.883Z,8.17
2018-10-01T07:22:03.255Z,11.50
2018-10-01T07:24:33.164Z,10.73
2018-10-01T07:27:02.691Z,10.10
2018-10-01T07:29:32.059Z,8.80
2018-10-01T07:32:01.390Z,7.63
2018-10-01T07:34:31.107Z,9.37
2018-10-01T07:37:07.303Z,6.93
2018-10-01T07:39:36.690Z,8.80
2018-10-01T07:42:06.066Z,7.27
2018-10-01T07:44:35.429Z,8.77
2018-10-01T07:47:04.831Z,7.67
2018-10-01T07:49:34.203Z,13.97
2018-10-01T07:52:03.528Z,7.17
2018-10-01T07:54:32.770Z,8.37
2018-10-01T07:57:02.132Z,10.43
2018-10-01T07:59:31.578Z,13.87
2018-10-01T08:02:00.929Z,9.37
2018-10-01T08:04:30.259Z,10.30
2018-10-01T08:06:59.599Z,9.27
2018-10-01T08:09:28.983Z,9.63
2018-10-01T08:11:58.331Z,10.83
2018-10-01T08:14:27.727Z,14.83
2018-10-01T08:16:57.086Z,10.83
2018-10-01T08:19:26.557Z,10.77
2018-10-01T08:21:55.977Z,15.57
2018-10-01T08:24:25.323Z,23.63
2018-10-01T08:26:54.610Z,16.53
2018-10-01T08:29:24.066Z,12.57
2018-10-01T08:31:53.279Z,9.90
2018-10-01T08:34:22.614Z,12.10
2018-10-01T08:36:51.993Z,9.73
2018-10-01T08:39:21.327Z,31.17
2018-10-01T08:41:50.670Z,11.27
2018-10-01T08:44:20.042Z,14.33
2018-10-01T08:46:49.436Z,10.80
2018-10-01T08:49:38.966Z,9.93
2018-10-01T08:52:12.308Z,9.63
2018-10-01T08:54:43.833Z,11.70
2018-10-01T08:57:13.168Z,16.50
2018-10-01T08:59:42.587Z,11.40
2018-10-01T09:02:12.038Z,8.33
2018-10-01T09:04:41.279Z,10.50
2018-10-01T09:07:10.598Z,11.50
2018-10-01T09:09:39.886Z,13.03
2018-10-01T09:12:09.754Z,8.97
2018-10-01T09:14:39.100Z,10.63
2018-10-01T09:17:08.467Z,12.00
2018-10-01T09:19:37.863Z,14.37
2018-10-01T09:22:07.283Z,12.63
2018-10-01T09:24:36.667Z,9.30
2018-10-01T09:27:05.943Z,9.27
2018-10-01T09:29:35.387Z,7.80
2018-10-01T09:32:04.869Z,9.60
2018-10-01T09:34:34.203Z,8.53
2018-10-01T09:37:03.571Z,11.13
2018-10-01T09:39:32.866Z,10.43
2018-10-01T09:42:02.271Z,8.20
2018-10-01T09:44:31.777Z,9.27
2018-10-01T09:47:01.136Z,10.03
2018-10-01T09:49:30.501Z,9.50
2018-10-01T09:51:59.920Z,7.47
2018-10-01T09:54:29.303Z,9.20
2018-10-01T09:56:58.671Z,8.33
2018-10-01T09:59:27.974Z,5.23
2018-10-01T10:01:57.329Z,7.13
2018-10-01T10:04:26.662Z,6.97
2018-10-01T10:06:56.033Z,7.53
2018-10-01T10:09:25.441Z,8.70
2018-10-01T10:11:54.880Z,7.37
2018-10-01T10:14:24.218Z,7.33
2018-10-01T10:16:53.667Z,12.80
2018-10-01T10:19:23.042Z,6.57
2018-10-01T10:21:52.455Z,10.20
2018-10-01T10:24:21.713Z,5.90
2018-10-01T10:26:51.082Z,7.07
2018-10-01T10:29:20.432Z,8.27
2018-10-01T10:31:49.790Z,12.33
2018-10-01T10:34:19.215Z,7.73
2018-10-01T10:36:48.519Z,9.90
2018-10-01T10:39:17.958Z,10.10
2018-10-01T10:41:47.278Z,7.13
2018-10-01T10:44:16.749Z,14.93
2018-10-01T10:46:45.986Z,10.07
2018-10-01T10:49:15.298Z,13.50
2018-10-01T10:51:44.769Z,4.50
2018-10-01T10:54:14.119Z,6.03
2018-10-01T10:56:43.508Z,6.40
2018-10-01T10:59:12.794Z,5.03
2018-10-01T11:01:42.305Z,8.93
2018-10-01T11:04:11.719Z,5.87
2018-10-01T11:06:41.051Z,6.53
2018-10-01T11:09:11.732Z,6.70
2018-10-01T11:11:41.035Z,6.27
2018-10-01T11:14:10.712Z,6.53
2018-10-01T11:16:39.920Z,6.97
2018-10-01T11:19:09.341Z,5.57
2018-10-01T11:21:38.762Z,5.13
2018-10-01T11:24:08.135Z,7.87
2018-10-01T11:26:37.491Z,6.43
2018-10-01T11:29:07.240Z,3.47
2018-10-01T11:31:36.540Z,3.23
2018-10-01T11:34:05.939Z,2.43
2018-10-01T11:36:35.250Z,2.37
2018-10-01T11:39:06.952Z,5.80
2018-10-01T11:41:36.213Z,5.10
2018-10-01T11:44:05.599Z,2.87
2018-10-01T11:46:35.046Z,4.00
2018-10-01T11:49:04.321Z,1.73
2018-10-01T11:51:33.648Z,5.07
2018-10-01T11:54:03.047Z,4.97
2018-10-01T11:56:32.355Z,2.33
2018-10-01T11:59:01.755Z,3.70
2018-10-01T12:01:31.104Z,5.23
2018-10-01T12:04:00.486Z,2.50
2018-10-01T12:06:29.829Z,2.27
2018-10-01T12:08:59.282Z,3.20
2018-10-01T12:11:28.680Z,3.10
2018-10-01T12:13:57.999Z,3.77
2018-10-01T12:16:27.305Z,3.13
2018-10-01T12:18:56.760Z,2.50
2018-10-01T12:21:26.107Z,2.27
2018-10-01T12:23:55.403Z,3.80
2018-10-01T12:26:24.686Z,2.10
2018-10-01T12:28:54.007Z,3.60
2018-10-01T12:31:23.338Z,2.70
2018-10-01T12:33:52.626Z,6.13
2018-10-01T12:36:22.865Z,3.40
2018-10-01T12:38:52.324Z,2.97
2018-10-01T12:41:21.798Z,2.53
2018-10-01T12:43:51.108Z,4.93
2018-10-01T12:46:20.586Z,3.50
2018-10-01T12:48:49.938Z,2.97
2018-10-01T12:51:25.898Z,5.53
2018-10-01T12:53:55.336Z,2.53
2018-10-01T12:56:26.425Z,2.27
2018-10-01T12:58:55.764Z,4.17
2018-10-01T13:01:24.982Z,5.57
2018-10-01T13:03:54.399Z,6.83
2018-10-01T13:06:23.779Z,4.37
2018-10-01T13:08:52.979Z,3.00
2018-10-01T13:11:22.382Z,3.57
2018-10-01T13:13:51.698Z,4.07
2018-10-01T13:16:21.048Z,7.70
2018-10-01T13:18:50.388Z,4.27
2018-10-01T13:21:19.778Z,6.93
2018-10-01T13:23:49.165Z,3.70
2018-10-01T13:26:18.509Z,5.50
2018-10-01T13:28:47.836Z,4.87
2018-10-01T13:31:17.253Z,3.83
2018-10-01T13:33:46.616Z,5.03
2018-10-01T13:36:16.142Z,4.07
2018-10-01T13:38:45.635Z,3.13
2018-10-01T13:41:15.015Z,2.93
2018-10-01T13:43:44.391Z,7.50
2018-10-01T13:46:13.859Z,3.63
2018-10-01T13:48:43.317Z,4.03
2018-10-01T13:51:12.534Z,4.70
2018-10-01T13:53:41.799Z,4.37
2018-10-01T13:56:11.170Z,2.53
2018-10-01T13:58:40.532Z,3.10
2018-10-01T14:01:09.818Z,3.70
2018-10-01T14:03:39.261Z,5.10
2018-10-01T14:06:08.643Z,5.20
2018-10-01T14:08:38.019Z,3.07
2018-10-01T14:11:07.355Z,2.73
2018-10-01T14:13:36.715Z,2.53
2018-10-01T14:16:06.053Z,2.63
2018-10-01T14:18:35.386Z,5.90
2018-10-01T14:21:04.804Z,5.23
2018-10-01T14:23:34.183Z,3.13
2018-10-01T14:26:03.646Z,3.60
2018-10-01T14:28:32.972Z,3.40
2018-10-01T14:31:02.451Z,3.13
2018-10-01T14:33:31.799Z,2.47
2018-10-01T14:36:01.202Z,4.70
2018-10-01T14:38:30.657Z,4.87
2018-10-01T14:41:00.064Z,3.93
2018-10-01T14:43:29.424Z,2.00
2018-10-01T14:45:58.843Z,3.33
2018-10-01T14:48:28.731Z,2.23
2018-10-01T14:50:58.144Z,2.37
2018-10-01T14:53:27.489Z,2.43
2018-10-01T14:55:56.873Z,1.83
2018-10-01T14:58:26.155Z,2.90
2018-10-01T15:00:55.617Z,1.73
2018-10-01T15:03:24.957Z,3.23
2018-10-01T15:05:54.334Z,2.53
2018-10-01T15:08:23.649Z,3.13
2018-10-01T15:10:53.095Z,3.13
2018-10-01T15:13:22.503Z,6.20
2018-10-01T15:15:52.115Z,2.00
2018-10-01T15:18:21.429Z,3.33
2018-10-01T15:20:50.937Z,2.17
2018-10-01T15:23:20.286Z,3.53
2018-10-01T15:25:49.636Z,1.73
2018-10-01T15:28:18.937Z,2.17
2018-10-01T15:30:48.324Z,0.80
2018-10-01T15:33:17.734Z,2.10
2018-10-01T15:35:47.156Z,0.70
2018-10-01T15:38:16.517Z,1.97
2018-10-01T15:40:45.941Z,4.17
2018-10-01T15:43:15.399Z,1.50
2018-10-01T15:45:44.832Z,1.17
2018-10-01T15:48:14.208Z,2.73
2018-10-01T15:50:43.768Z,0.70
2018-10-01T15:53:13.185Z,1.70
2018-10-01T15:55:42.580Z,1.10
2018-10-01T15:58:12.019Z,3.63
2018-10-01T16:00:41.375Z,2.00
2018-10-01T16:03:10.778Z,1.20
2018-10-01T16:05:40.286Z,2.27
2018-10-01T16:08:09.772Z,1.50
2018-10-01T16:10:39.131Z,1.20
2018-10-01T16:13:08.480Z,1.03
2018-10-01T16:15:37.830Z,4.90
2018-10-01T16:18:07.173Z,1.10
2018-10-01T16:20:36.537Z,0.70
2018-10-01T16:23:05.924Z,1.07
2018-10-01T16:25:35.272Z,0.77
2018-10-01T16:28:05.726Z,1.30
2018-10-01T16:30:35.055Z,0.87
2018-10-01T16:33:04.415Z,1.23
2018-10-01T16:35:33.791Z,0.57
2018-10-01T16:38:03.194Z,1.40
2018-10-01T16:40:32.627Z,1.37
2018-10-01T16:43:02.386Z,2.03
2018-10-01T16:45:31.703Z,1.67
2018-10-01T16:48:00.947Z,2.90
2018-10-01T16:50:30.315Z,1.87
2018-10-01T16:52:59.695Z,1.87
2018-10-01T16:55:29.051Z,1.87
2018-10-01T16:57:58.419Z,1.17
2018-10-01T17:00:27.769Z,2.67
2018-10-01T17:02:57.173Z,0.87
2018-10-01T17:05:26.553Z,1.77
2018-10-01T17:07:55.888Z,3.13
2018-10-01T17:10:25.334Z,2.80
2018-10-01T17:12:54.708Z,0.80
2018-10-01T17:15:24.284Z,2.80
2018-10-01T17:17:53.598Z,1.03
2018-10-01T17:20:23.131Z,1.90
2018-10-01T17:22:52.454Z,2.13
2018-10-01T17:25:22.048Z,2.07
2018-10-01T17:27:51.428Z,2.30
2018-10-01T17:30:20.949Z,1.97
2018-10-01T17:32:50.182Z,1.00
2018-10-01T17:35:19.549Z,5.63
2018-10-01T17:37:48.896Z,4.93
2018-10-01T17:40:18.315Z,7.63
2018-10-01T17:42:47.639Z,5.77
2018-10-01T17:45:17.067Z,2.80
2018-10-01T17:47:46.372Z,2.17
2018-10-01T17:50:19.139Z,1.87
2018-10-01T17:52:48.519Z,1.43
2018-10-01T17:55:17.981Z,2.30
2018-10-01T17:57:47.362Z,3.23
2018-10-01T18:00:16.764Z,6.03
2018-10-01T18:02:46.043Z,2.50
2018-10-01T18:05:15.362Z,7.10
2018-10-01T18:07:48.791Z,2.20
2018-10-01T18:10:18.239Z,3.23
2018-10-01T18:12:47.612Z,2.43
2018-10-01T18:15:16.992Z,5.67
2018-10-01T18:17:46.312Z,1.87
2018-10-01T18:20:15.747Z,3.27
2018-10-01T18:22:45.138Z,1.00
2018-10-01T18:25:14.471Z,8.40
2018-10-01T18:27:43.854Z,7.77
2018-10-01T18:30:13.170Z,10.23
2018-10-01T18:32:42.635Z,9.53
2018-10-01T18:35:12.017Z,8.27
2018-10-01T18:37:41.314Z,4.40
2018-10-01T18:40:12.974Z,7.27
2018-10-01T18:42:42.467Z,5.63
2018-10-01T18:45:29.355Z,3.43
2018-10-01T18:47:58.780Z,5.23
2018-10-01T18:50:28.274Z,3.73
2018-10-01T18:52:57.643Z,5.40
2018-10-01T18:55:27.102Z,3.47
2018-10-01T18:57:56.446Z,3.83
2018-10-01T19:00:25.877Z,7.53
2018-10-01T19:02:55.147Z,6.93
2018-10-01T19:05:24.541Z,4.13
2018-10-01T19:07:53.921Z,10.57
2018-10-01T19:10:23.293Z,4.30
2018-10-01T19:12:52.671Z,5.23
2018-10-01T19:15:22.223Z,5.50
2018-10-01T19:17:51.546Z,5.37
2018-10-01T19:20:20.904Z,4.77
2018-10-01T19:22:50.233Z,4.10
2018-10-01T19:25:19.604Z,6.00
2018-10-01T19:27:48.927Z,8.67
2018-10-01T19:30:18.531Z,5.07
2018-10-01T19:32:48.007Z,6.77
2018-10-01T19:35:17.319Z,5.73
2018-10-01T19:37:46.744Z,7.17
2018-10-01T19:40:16.176Z,7.80
2018-10-01T19:42:45.843Z,5.80
2018-10-01T19:45:15.246Z,7.67
2018-10-01T19:47:44.560Z,12.70
2018-10-01T19:50:13.883Z,8.93
2018-10-01T19:52:43.308Z,6.07
2018-10-01T19:55:12.783Z,6.90
2018-10-01T19:57:42.099Z,5.30
2018-10-01T20:00:11.535Z,4.43
2018-10-01T20:02:40.815Z,4.03
2018-10-01T20:05:10.278Z,6.03
2018-10-01T20:07:39.585Z,6.83
2018-10-01T20:10:09.032Z,4.33
2018-10-01T20:12:38.280Z,4.87
2018-10-01T20:15:07.782Z,6.23
2018-10-01T20:17:37.118Z,7.13
2018-10-01T20:20:06.489Z,2.47
2018-10-01T20:22:35.791Z,4.93
2018-10-01T20:25:05.207Z,3.10
2018-10-01T20:27:34.526Z,3.67
2018-10-01T20:30:03.946Z,4.57
2018-10-01T20:32:33.226Z,4.20
2018-10-01T20:35:02.648Z,5.50
2018-10-01T20:37:32.034Z,3.07
2018-10-01T20:40:01.399Z,2.57
2018-10-01T20:42:30.742Z,7.87
2018-10-01T20:45:00.110Z,3.90
2018-10-01T20:47:29.399Z,6.93
2018-10-01T20:49:58.811Z,4.83
2018-10-01T20:52:28.146Z,4.93
2018-10-01T20:54:57.593Z,4.30
2018-10-01T20:57:26.882Z,4.00
2018-10-01T20:59:56.307Z,3.40
2018-10-01T21:02:25.721Z,7.50
2018-10-01T21:04:55.070Z,4.93
2018-10-01T21:07:24.415Z,2.30
2018-10-01T21:09:53.773Z,4.60
2018-10-01T21:12:23.102Z,4.77
2018-10-01T21:14:52.484Z,4.27
2018-10-01T21:17:21.854Z,2.53
2018-10-01T21:19:51.173Z,3.93
2018-10-01T21:22:20.502Z,1.53
2018-10-01T21:24:49.816Z,3.03
2018-10-01T21:27:19.115Z,4.43
2018-10-01T21:29:48.393Z,3.50
2018-10-01T21:32:17.808Z,5.13
2018-10-01T21:34:47.147Z,6.10
2018-10-01T21:37:16.458Z,7.40
2018-10-01T21:39:54.770Z,7.37
2018-10-01T21:42:24.119Z,4.23
2018-10-01T21:44:53.513Z,6.90
2018-10-01T21:47:22.851Z,5.57
2018-10-01T21:49:52.519Z,6.77
2018-10-01T21:52:21.903Z,6.00
2018-10-01T21:54:51.223Z,5.20
2018-10-01T21:57:20.760Z,2.50
2018-10-01T21:59:50.662Z,4.47
2018-10-01T22:02:20.287Z,5.77
2018-10-01T22:04:49.630Z,5.17
2018-10-01T22:07:19.280Z,6.03
2018-10-01T22:09:49.243Z,7.37
2018-10-01T22:12:18.574Z,4.00
2018-10-01T22:14:47.936Z,4.27
2018-10-01T22:17:17.302Z,2.57
2018-10-01T22:19:46.666Z,3.80
2018-10-01T22:22:16.034Z,6.33
2018-10-01T22:24:45.293Z,2.90
2018-10-01T22:27:14.644Z,4.00
2018-10-01T22:29:43.927Z,3.90
2018-10-01T22:32:13.206Z,3.87
2018-10-01T22:34:42.547Z,2.30
2018-10-01T22:37:11.947Z,3.50
2018-10-01T22:39:41.334Z,2.80
2018-10-01T22:42:10.636Z,4.57
2018-10-01T22:44:40.002Z,2.00
2018-10-01T22:47:09.324Z,4.90
2018-10-01T22:49:38.621Z,4.97
2018-10-01T22:52:08.013Z,5.03
2018-10-01T22:54:37.322Z,3.17
2018-10-01T22:57:06.928Z,4.27
2018-10-01T22:59:36.265Z,3.57
2018-10-01T23:02:05.608Z,3.03
2018-10-01T23:04:34.940Z,4.73
2018-10-01T23:07:04.259Z,1.77
2018-10-01T23:09:33.603Z,5.70
2018-10-01T23:12:02.902Z,4.03
2018-10-01T23:14:32.255Z,2.20
2018-10-01T23:17:01.531Z,4.43
2018-10-01T23:19:30.822Z,5.70
2018-10-01T23:22:00.162Z,3.13
2018-10-01T23:24:29.418Z,3.40
2018-10-01T23:26:58.747Z,6.07
2018-10-01T23:29:28.064Z,2.80
2018-10-01T23:31:57.423Z,4.60
2018-10-01T23:34:26.752Z,6.77
2018-10-01T23:36:56.042Z,4.27
2018-10-01T23:39:25.408Z,5.57
2018-10-01T23:41:54.786Z,3.23
2018-10-01T23:44:24.247Z,2.43
2018-10-01T23:46:53.564Z,6.77
2018-10-01T23:49:22.975Z,9.60
2018-10-01T23:51:52.335Z,4.23
2018-10-01T23:54:21.606Z,3.90
2018-10-01T23:56:50.957Z,4.00
2018-10-01T23:59:20.351Z,2.60
